sensor_id;sensor_type;location;lat;lon;timestamp;P1;durP1;ratioP1;P2;durP2;ratioP2
42858;SDS011;28505;56.970;40.998;2023-01-19T00:00:47;27.52;;;10.55;;
42858;SDS011;28505;56.970;40.998;2023-01-19T00:06:14;30.55;;;12.65;;
42858;SDS011;28505;56.970;40.998;2023-01-19T00:11:46;25.35;;;9.98;;
42858;SDS011;28505;56.970;40.998;2023-01-19T00:17:09;30.65;;;10.48;;
42858;SDS011;28505;56.970;40.998;2023-01-19T00:22:33;23.60;;;8.55;;
42858;SDS011;28505;56.970;40.998;2023-01-19T00:27:59;27.92;;;9.52;;
42858;SDS011;28505;56.970;40.998;2023-01-19T00:33:28;27.45;;;10.57;;
42858;SDS011;28505;56.970;40.998;2023-01-19T00:38:53;24.25;;;9.43;;
42858;SDS011;28505;56.970;40.998;2023-01-19T00:44:16;29.35;;;10.95;;
42858;SDS011;28505;56.970;40.998;2023-01-19T00:49:38;24.50;;;10.93;;
42858;SDS011;28505;56.970;40.998;2023-01-19T00:55:02;23.90;;;11.60;;
42858;SDS011;28505;56.970;40.998;2023-01-19T01:00:28;22.20;;;10.35;;
42858;SDS011;28505;56.970;40.998;2023-01-19T01:05:59;25.92;;;10.25;;
42858;SDS011;28505;56.970;40.998;2023-01-19T01:11:26;23.33;;;7.95;;
42858;SDS011;28505;56.970;40.998;2023-01-19T01:16:49;24.08;;;10.25;;
42858;SDS011;28505;56.970;40.998;2023-01-19T01:22:23;26.63;;;10.45;;
42858;SDS011;28505;56.970;40.998;2023-01-19T01:27:53;25.80;;;8.30;;
42858;SDS011;28505;56.970;40.998;2023-01-19T01:33:17;23.63;;;7.38;;
42858;SDS011;28505;56.970;40.998;2023-01-19T01:39:04;15.43;;;6.30;;
42858;SDS011;28505;56.970;40.998;2023-01-19T01:44:52;15.38;;;6.28;;
42858;SDS011;28505;56.970;40.998;2023-01-19T01:50:25;22.08;;;7.88;;
42858;SDS011;28505;56.970;40.998;2023-01-19T01:55:50;20.65;;;6.65;;
42858;SDS011;28505;56.970;40.998;2023-01-19T02:01:12;19.30;;;6.80;;
42858;SDS011;28505;56.970;40.998;2023-01-19T02:06:52;24.52;;;8.90;;
42858;SDS011;28505;56.970;40.998;2023-01-19T02:12:33;14.32;;;4.40;;
42858;SDS011;28505;56.970;40.998;2023-01-19T02:18:13;18.85;;;6.78;;
42858;SDS011;28505;56.970;40.998;2023-01-19T02:29:00;19.83;;;6.40;;
42858;SDS011;28505;56.970;40.998;2023-01-19T02:34:24;22.45;;;6.40;;
42858;SDS011;28505;56.970;40.998;2023-01-19T02:39:48;20.05;;;7.63;;
42858;SDS011;28505;56.970;40.998;2023-01-19T02:45:13;23.60;;;7.50;;
42858;SDS011;28505;56.970;40.998;2023-01-19T02:50:40;19.38;;;6.60;;
42858;SDS011;28505;56.970;40.998;2023-01-19T03:08:18;13.25;;;5.22;;
42858;SDS011;28505;56.970;40.998;2023-01-19T03:14:10;13.82;;;5.47;;
42858;SDS011;28505;56.970;40.998;2023-01-19T03:19:41;14.50;;;5.72;;
42858;SDS011;28505;56.970;40.998;2023-01-19T03:25:08;12.93;;;5.00;;
42858;SDS011;28505;56.970;40.998;2023-01-19T03:30:35;13.52;;;4.07;;
42858;SDS011;28505;56.970;40.998;2023-01-19T03:36:08;3.92;;;2.10;;
42858;SDS011;28505;56.970;40.998;2023-01-19T03:41:38;14.60;;;5.07;;
42858;SDS011;28505;56.970;40.998;2023-01-19T03:47:04;15.57;;;5.47;;
42858;SDS011;28505;56.970;40.998;2023-01-19T03:52:31;10.68;;;4.65;;
42858;SDS011;28505;56.970;40.998;2023-01-19T03:57:55;12.00;;;3.75;;
42858;SDS011;28505;56.970;40.998;2023-01-19T04:03:17;14.75;;;4.53;;
42858;SDS011;28505;56.970;40.998;2023-01-19T04:08:40;15.18;;;4.60;;
42858;SDS011;28505;56.970;40.998;2023-01-19T04:14:01;15.40;;;3.85;;
42858;SDS011;28505;56.970;40.998;2023-01-19T04:19:24;11.10;;;4.70;;
42858;SDS011;28505;56.970;40.998;2023-01-19T04:24:46;12.88;;;4.43;;
42858;SDS011;28505;56.970;40.998;2023-01-19T04:30:08;15.40;;;6.07;;
42858;SDS011;28505;56.970;40.998;2023-01-19T04:35:31;14.82;;;5.85;;
42858;SDS011;28505;56.970;40.998;2023-01-19T04:40:54;8.73;;;2.28;;
42858;SDS011;28505;56.970;40.998;2023-01-19T04:46:16;14.95;;;4.53;;
42858;SDS011;28505;56.970;40.998;2023-01-19T04:51:39;12.68;;;3.95;;
42858;SDS011;28505;56.970;40.998;2023-01-19T04:57:02;10.02;;;5.03;;
42858;SDS011;28505;56.970;40.998;2023-01-19T05:02:34;15.18;;;5.30;;
42858;SDS011;28505;56.970;40.998;2023-01-19T05:07:56;14.25;;;4.72;;
42858;SDS011;28505;56.970;40.998;2023-01-19T05:13:18;16.00;;;4.35;;
42858;SDS011;28505;56.970;40.998;2023-01-19T05:18:52;15.10;;;4.10;;
42858;SDS011;28505;56.970;40.998;2023-01-19T05:24:14;22.23;;;4.63;;
42858;SDS011;28505;56.970;40.998;2023-01-19T05:29:36;7.65;;;3.65;;
42858;SDS011;28505;56.970;40.998;2023-01-19T05:34:58;12.07;;;4.45;;
42858;SDS011;28505;56.970;40.998;2023-01-19T05:40:20;13.52;;;3.85;;
42858;SDS011;28505;56.970;40.998;2023-01-19T05:45:42;10.32;;;4.70;;
42858;SDS011;28505;56.970;40.998;2023-01-19T05:51:04;11.30;;;3.47;;
42858;SDS011;28505;56.970;40.998;2023-01-19T05:56:27;5.22;;;1.88;;
42858;SDS011;28505;56.970;40.998;2023-01-19T06:01:52;14.77;;;4.05;;
42858;SDS011;28505;56.970;40.998;2023-01-19T06:07:15;12.55;;;3.90;;
42858;SDS011;28505;56.970;40.998;2023-01-19T06:12:40;8.40;;;3.20;;
42858;SDS011;28505;56.970;40.998;2023-01-19T06:18:03;17.00;;;5.28;;
42858;SDS011;28505;56.970;40.998;2023-01-19T06:23:29;12.85;;;4.15;;
42858;SDS011;28505;56.970;40.998;2023-01-19T06:28:52;14.65;;;4.47;;
42858;SDS011;28505;56.970;40.998;2023-01-19T06:34:15;13.13;;;4.10;;
42858;SDS011;28505;56.970;40.998;2023-01-19T06:39:37;12.35;;;4.90;;
42858;SDS011;28505;56.970;40.998;2023-01-19T06:45:01;8.80;;;3.63;;
42858;SDS011;28505;56.970;40.998;2023-01-19T06:50:23;12.90;;;4.47;;
42858;SDS011;28505;56.970;40.998;2023-01-19T06:55:45;15.43;;;4.80;;
42858;SDS011;28505;56.970;40.998;2023-01-19T07:01:07;11.77;;;3.45;;
42858;SDS011;28505;56.970;40.998;2023-01-19T07:06:30;13.68;;;4.53;;
42858;SDS011;28505;56.970;40.998;2023-01-19T07:11:52;9.48;;;3.45;;
42858;SDS011;28505;56.970;40.998;2023-01-19T07:17:15;13.45;;;4.07;;
42858;SDS011;28505;56.970;40.998;2023-01-19T07:22:37;13.73;;;4.78;;
42858;SDS011;28505;56.970;40.998;2023-01-19T07:27:59;16.75;;;4.20;;
42858;SDS011;28505;56.970;40.998;2023-01-19T07:33:22;18.50;;;4.05;;
42858;SDS011;28505;56.970;40.998;2023-01-19T07:38:46;15.82;;;5.05;;
42858;SDS011;28505;56.970;40.998;2023-01-19T07:44:08;18.10;;;4.20;;
42858;SDS011;28505;56.970;40.998;2023-01-19T07:49:30;11.52;;;3.85;;
42858;SDS011;28505;56.970;40.998;2023-01-19T07:54:53;3.63;;;1.88;;
42858;SDS011;28505;56.970;40.998;2023-01-19T08:00:17;13.73;;;5.10;;
42858;SDS011;28505;56.970;40.998;2023-01-19T08:05:52;15.10;;;4.88;;
42858;SDS011;28505;56.970;40.998;2023-01-19T08:11:49;9.57;;;2.63;;
42858;SDS011;28505;56.970;40.998;2023-01-19T08:17:38;9.73;;;4.85;;
42858;SDS011;28505;56.970;40.998;2023-01-19T08:23:13;7.00;;;2.13;;
42858;SDS011;28505;56.970;40.998;2023-01-19T08:29:30;9.45;;;3.28;;
42858;SDS011;28505;56.970;40.998;2023-01-19T08:35:23;12.25;;;4.75;;
42858;SDS011;28505;56.970;40.998;2023-01-19T08:41:10;6.00;;;3.17;;
42858;SDS011;28505;56.970;40.998;2023-01-19T08:46:41;11.00;;;3.63;;
42858;SDS011;28505;56.970;40.998;2023-01-19T08:52:12;5.75;;;2.17;;
42858;SDS011;28505;56.970;40.998;2023-01-19T08:58:23;13.52;;;4.90;;
42858;SDS011;28505;56.970;40.998;2023-01-19T09:03:48;11.13;;;4.40;;
42858;SDS011;28505;56.970;40.998;2023-01-19T09:09:14;10.15;;;3.90;;
42858;SDS011;28505;56.970;40.998;2023-01-19T09:14:36;8.18;;;3.22;;
42858;SDS011;28505;56.970;40.998;2023-01-19T09:19:58;11.05;;;4.03;;
42858;SDS011;28505;56.970;40.998;2023-01-19T09:25:20;14.32;;;4.65;;
42858;SDS011;28505;56.970;40.998;2023-01-19T09:30:42;9.70;;;3.03;;
42858;SDS011;28505;56.970;40.998;2023-01-19T09:36:05;12.10;;;4.03;;
42858;SDS011;28505;56.970;40.998;2023-01-19T09:41:36;10.35;;;4.43;;
42858;SDS011;28505;56.970;40.998;2023-01-19T09:47:15;15.38;;;4.15;;
42858;SDS011;28505;56.970;40.998;2023-01-19T09:52:49;2.67;;;1.92;;
42858;SDS011;28505;56.970;40.998;2023-01-19T10:11:28;13.70;;;4.25;;
42858;SDS011;28505;56.970;40.998;2023-01-19T10:23:21;16.88;;;6.22;;
42858;SDS011;28505;56.970;40.998;2023-01-19T10:34:54;10.00;;;4.60;;
42858;SDS011;28505;56.970;40.998;2023-01-19T10:46:18;16.98;;;5.25;;
42858;SDS011;28505;56.970;40.998;2023-01-19T10:52:23;13.07;;;5.20;;
42858;SDS011;28505;56.970;40.998;2023-01-19T10:58:29;8.38;;;3.33;;
42858;SDS011;28505;56.970;40.998;2023-01-19T11:03:56;14.02;;;4.20;;
42858;SDS011;28505;56.970;40.998;2023-01-19T11:09:39;12.73;;;5.25;;
42858;SDS011;28505;56.970;40.998;2023-01-19T11:20:52;10.77;;;4.63;;
42858;SDS011;28505;56.970;40.998;2023-01-19T11:26:28;6.53;;;3.30;;
42858;SDS011;28505;56.970;40.998;2023-01-19T11:32:08;13.82;;;5.93;;
42858;SDS011;28505;56.970;40.998;2023-01-19T11:37:33;19.67;;;4.93;;
42858;SDS011;28505;56.970;40.998;2023-01-19T11:42:59;18.23;;;6.95;;
42858;SDS011;28505;56.970;40.998;2023-01-19T11:48:29;13.73;;;5.57;;
42858;SDS011;28505;56.970;40.998;2023-01-19T11:53:57;7.18;;;2.22;;
42858;SDS011;28505;56.970;40.998;2023-01-19T11:59:20;11.32;;;5.10;;
42858;SDS011;28505;56.970;40.998;2023-01-19T12:04:49;10.93;;;4.37;;
42858;SDS011;28505;56.970;40.998;2023-01-19T12:15:57;5.68;;;2.20;;
42858;SDS011;28505;56.970;40.998;2023-01-19T12:21:25;8.80;;;2.95;;
42858;SDS011;28505;56.970;40.998;2023-01-19T12:26:52;6.28;;;3.22;;
42858;SDS011;28505;56.970;40.998;2023-01-19T12:32:33;11.93;;;4.80;;
42858;SDS011;28505;56.970;40.998;2023-01-19T12:37:57;4.70;;;2.33;;
42858;SDS011;28505;56.970;40.998;2023-01-19T12:43:19;9.60;;;4.22;;
42858;SDS011;28505;56.970;40.998;2023-01-19T12:48:45;22.17;;;6.53;;
42858;SDS011;28505;56.970;40.998;2023-01-19T12:54:32;10.53;;;5.13;;
42858;SDS011;28505;56.970;40.998;2023-01-19T13:00:04;14.52;;;2.92;;
42858;SDS011;28505;56.970;40.998;2023-01-19T13:05:48;21.35;;;6.70;;
42858;SDS011;28505;56.970;40.998;2023-01-19T13:11:16;19.70;;;4.63;;
42858;SDS011;28505;56.970;40.998;2023-01-19T13:28:08;21.88;;;6.50;;
42858;SDS011;28505;56.970;40.998;2023-01-19T13:33:36;11.10;;;4.57;;
42858;SDS011;28505;56.970;40.998;2023-01-19T14:12:10;24.30;;;8.27;;
42858;SDS011;28505;56.970;40.998;2023-01-19T14:17:37;16.75;;;7.30;;
42858;SDS011;28505;56.970;40.998;2023-01-19T14:23:00;21.13;;;7.25;;
42858;SDS011;28505;56.970;40.998;2023-01-19T14:28:36;30.98;;;9.20;;
42858;SDS011;28505;56.970;40.998;2023-01-19T14:34:22;13.95;;;5.07;;
42858;SDS011;28505;56.970;40.998;2023-01-19T14:40:15;20.23;;;6.15;;
42858;SDS011;28505;56.970;40.998;2023-01-19T14:45:41;18.90;;;6.20;;
42858;SDS011;28505;56.970;40.998;2023-01-19T14:51:11;6.55;;;5.80;;
42858;SDS011;28505;56.970;40.998;2023-01-19T14:56:44;20.48;;;6.38;;
42858;SDS011;28505;56.970;40.998;2023-01-19T15:02:15;30.10;;;10.05;;
42858;SDS011;28505;56.970;40.998;2023-01-19T15:07:41;12.80;;;3.92;;
42858;SDS011;28505;56.970;40.998;2023-01-19T15:13:20;18.70;;;5.18;;
42858;SDS011;28505;56.970;40.998;2023-01-19T15:18:46;17.25;;;4.80;;
42858;SDS011;28505;56.970;40.998;2023-01-19T15:24:09;15.27;;;5.47;;
42858;SDS011;28505;56.970;40.998;2023-01-19T15:29:34;16.30;;;6.82;;
42858;SDS011;28505;56.970;40.998;2023-01-19T15:35:01;22.55;;;7.65;;
42858;SDS011;28505;56.970;40.998;2023-01-19T15:40:42;12.77;;;3.85;;
42858;SDS011;28505;56.970;40.998;2023-01-19T15:46:14;12.63;;;5.95;;
42858;SDS011;28505;56.970;40.998;2023-01-19T15:51:48;4.70;;;1.67;;
42858;SDS011;28505;56.970;40.998;2023-01-19T15:57:25;22.65;;;7.10;;
42858;SDS011;28505;56.970;40.998;2023-01-19T16:03:08;14.70;;;5.78;;
42858;SDS011;28505;56.970;40.998;2023-01-19T16:08:31;24.35;;;8.00;;
42858;SDS011;28505;56.970;40.998;2023-01-19T16:13:56;17.00;;;4.65;;
42858;SDS011;28505;56.970;40.998;2023-01-19T16:19:17;14.52;;;5.82;;
42858;SDS011;28505;56.970;40.998;2023-01-19T16:24:43;16.38;;;5.70;;
42858;SDS011;28505;56.970;40.998;2023-01-19T16:35:54;25.20;;;8.13;;
42858;SDS011;28505;56.970;40.998;2023-01-19T16:41:23;13.18;;;5.70;;
42858;SDS011;28505;56.970;40.998;2023-01-19T16:46:49;25.42;;;6.10;;
42858;SDS011;28505;56.970;40.998;2023-01-19T16:52:32;19.13;;;5.07;;
42858;SDS011;28505;56.970;40.998;2023-01-19T16:57:57;14.30;;;4.85;;
42858;SDS011;28505;56.970;40.998;2023-01-19T17:04:01;5.07;;;2.33;;
42858;SDS011;28505;56.970;40.998;2023-01-19T17:09:32;3.75;;;2.70;;
42858;SDS011;28505;56.970;40.998;2023-01-19T17:15:12;13.23;;;5.53;;
42858;SDS011;28505;56.970;40.998;2023-01-19T17:20:37;21.33;;;6.60;;
42858;SDS011;28505;56.970;40.998;2023-01-19T17:26:00;28.70;;;7.65;;
42858;SDS011;28505;56.970;40.998;2023-01-19T17:31:42;12.85;;;5.63;;
42858;SDS011;28505;56.970;40.998;2023-01-19T17:37:09;11.30;;;4.00;;
42858;SDS011;28505;56.970;40.998;2023-01-19T17:42:31;20.90;;;7.13;;
42858;SDS011;28505;56.970;40.998;2023-01-19T17:47:57;32.40;;;8.52;;
42858;SDS011;28505;56.970;40.998;2023-01-19T17:53:19;23.00;;;7.88;;
42858;SDS011;28505;56.970;40.998;2023-01-19T17:58:41;21.83;;;8.98;;
42858;SDS011;28505;56.970;40.998;2023-01-19T18:04:03;19.88;;;6.30;;
42858;SDS011;28505;56.970;40.998;2023-01-19T18:09:25;28.50;;;8.80;;
42858;SDS011;28505;56.970;40.998;2023-01-19T18:21:31;19.13;;;6.47;;
42858;SDS011;28505;56.970;40.998;2023-01-19T18:26:58;23.38;;;9.40;;
42858;SDS011;28505;56.970;40.998;2023-01-19T18:32:26;23.87;;;7.73;;
42858;SDS011;28505;56.970;40.998;2023-01-19T18:37:51;24.20;;;6.75;;
42858;SDS011;28505;56.970;40.998;2023-01-19T18:43:25;25.55;;;8.00;;
42858;SDS011;28505;56.970;40.998;2023-01-19T18:48:57;27.95;;;6.97;;
42858;SDS011;28505;56.970;40.998;2023-01-19T18:54:24;19.05;;;5.25;;
42858;SDS011;28505;56.970;40.998;2023-01-19T18:59:50;22.90;;;6.38;;
42858;SDS011;28505;56.970;40.998;2023-01-19T19:05:12;22.15;;;5.13;;
42858;SDS011;28505;56.970;40.998;2023-01-19T19:10:35;22.13;;;7.95;;
42858;SDS011;28505;56.970;40.998;2023-01-19T19:16:06;21.15;;;6.82;;
42858;SDS011;28505;56.970;40.998;2023-01-19T19:21:29;18.65;;;7.70;;
42858;SDS011;28505;56.970;40.998;2023-01-19T19:26:52;8.93;;;4.30;;
42858;SDS011;28505;56.970;40.998;2023-01-19T19:32:14;13.85;;;4.65;;
42858;SDS011;28505;56.970;40.998;2023-01-19T19:37:40;15.88;;;7.03;;
42858;SDS011;28505;56.970;40.998;2023-01-19T19:43:02;24.27;;;6.57;;
42858;SDS011;28505;56.970;40.998;2023-01-19T19:48:25;12.75;;;5.20;;
42858;SDS011;28505;56.970;40.998;2023-01-19T19:53:48;18.88;;;5.47;;
42858;SDS011;28505;56.970;40.998;2023-01-19T19:59:12;22.13;;;7.72;;
42858;SDS011;28505;56.970;40.998;2023-01-19T20:04:41;21.30;;;5.45;;
42858;SDS011;28505;56.970;40.998;2023-01-19T20:10:12;15.68;;;6.38;;
42858;SDS011;28505;56.970;40.998;2023-01-19T20:15:36;18.65;;;6.90;;
42858;SDS011;28505;56.970;40.998;2023-01-19T20:21:12;22.33;;;7.70;;
42858;SDS011;28505;56.970;40.998;2023-01-19T20:26:38;15.48;;;4.65;;
42858;SDS011;28505;56.970;40.998;2023-01-19T20:32:02;19.70;;;3.53;;
42858;SDS011;28505;56.970;40.998;2023-01-19T20:37:25;19.73;;;5.93;;
42858;SDS011;28505;56.970;40.998;2023-01-19T20:42:53;10.63;;;4.83;;
42858;SDS011;28505;56.970;40.998;2023-01-19T20:48:15;15.65;;;6.80;;
42858;SDS011;28505;56.970;40.998;2023-01-19T20:53:38;20.00;;;6.55;;
42858;SDS011;28505;56.970;40.998;2023-01-19T20:59:02;19.40;;;5.97;;
42858;SDS011;28505;56.970;40.998;2023-01-19T21:04:27;14.60;;;5.53;;
42858;SDS011;28505;56.970;40.998;2023-01-19T21:09:49;16.27;;;6.35;;
42858;SDS011;28505;56.970;40.998;2023-01-19T21:15:11;18.00;;;5.63;;
42858;SDS011;28505;56.970;40.998;2023-01-19T21:20:34;21.17;;;6.75;;
42858;SDS011;28505;56.970;40.998;2023-01-19T21:25:56;20.05;;;6.13;;
42858;SDS011;28505;56.970;40.998;2023-01-19T21:31:20;18.15;;;6.03;;
42858;SDS011;28505;56.970;40.998;2023-01-19T21:36:47;9.60;;;3.70;;
42858;SDS011;28505;56.970;40.998;2023-01-19T21:42:09;11.25;;;5.35;;
42858;SDS011;28505;56.970;40.998;2023-01-19T21:47:33;11.95;;;5.45;;
42858;SDS011;28505;56.970;40.998;2023-01-19T21:52:56;17.45;;;6.78;;
42858;SDS011;28505;56.970;40.998;2023-01-19T21:58:20;24.45;;;5.28;;
42858;SDS011;28505;56.970;40.998;2023-01-19T22:04:31;26.88;;;9.63;;
42858;SDS011;28505;56.970;40.998;2023-01-19T22:09:55;8.32;;;3.80;;
42858;SDS011;28505;56.970;40.998;2023-01-19T22:15:17;20.48;;;7.30;;
42858;SDS011;28505;56.970;40.998;2023-01-19T22:20:42;25.15;;;8.05;;
42858;SDS011;28505;56.970;40.998;2023-01-19T22:26:08;26.13;;;8.75;;
42858;SDS011;28505;56.970;40.998;2023-01-19T22:31:49;20.17;;;7.80;;
42858;SDS011;28505;56.970;40.998;2023-01-19T22:37:12;18.23;;;6.32;;
42858;SDS011;28505;56.970;40.998;2023-01-19T22:42:34;27.60;;;7.70;;
42858;SDS011;28505;56.970;40.998;2023-01-19T22:47:57;25.88;;;8.68;;
42858;SDS011;28505;56.970;40.998;2023-01-19T22:53:22;23.25;;;9.65;;
42858;SDS011;28505;56.970;40.998;2023-01-19T22:58:45;22.17;;;8.07;;
42858;SDS011;28505;56.970;40.998;2023-01-19T23:04:10;18.80;;;8.65;;
42858;SDS011;28505;56.970;40.998;2023-01-19T23:09:34;20.52;;;8.70;;
42858;SDS011;28505;56.970;40.998;2023-01-19T23:14:58;19.48;;;8.48;;
42858;SDS011;28505;56.970;40.998;2023-01-19T23:20:20;29.58;;;8.98;;
42858;SDS011;28505;56.970;40.998;2023-01-19T23:25:42;33.20;;;9.57;;
42858;SDS011;28505;56.970;40.998;2023-01-19T23:31:14;30.73;;;9.75;;
42858;SDS011;28505;56.970;40.998;2023-01-19T23:36:43;32.73;;;12.17;;
42858;SDS011;28505;56.970;40.998;2023-01-19T23:42:06;19.92;;;8.73;;
42858;SDS011;28505;56.970;40.998;2023-01-19T23:47:28;16.73;;;6.50;;
42858;SDS011;28505;56.970;40.998;2023-01-19T23:52:50;23.05;;;8.85;;
42858;SDS011;28505;56.970;40.998;2023-01-19T23:58:12;38.65;;;15.23;;
